sensor_id;sensor_type;location;lat;lon;timestamp;pressure;altitude;pressure_sealevel;temperature;humidity
44920;BME280;30655;53.094;6.072;2022-10-01T00:02:45;100051.16;;;10.70;94.67
44920;BME280;30655;53.094;6.072;2022-10-01T00:05:36;100143.06;;;11.18;95.08
44920;BME280;30655;53.094;6.072;2022-10-01T00:08:51;100104.50;;;11.07;94.34
44920;BME280;30655;53.094;6.072;2022-10-01T00:12:02;100210.97;;;11.64;96.17
44920;BME280;30655;53.094;6.072;2022-10-01T00:21:45;99986.22;;;10.28;96.89
44920;BME280;30655;53.094;6.072;2022-10-01T00:27:38;100030.56;;;10.74;96.05
44920;BME280;30655;53.094;6.072;2022-10-01T00:30:10;99978.00;;;10.38;96.53
44920;BME280;30655;53.094;6.072;2022-10-01T00:32:42;100146.94;;;11.54;97.83
44920;BME280;30655;53.094;6.072;2022-10-01T00:45:30;100112.91;;;11.30;100.00
44920;BME280;30655;53.094;6.072;2022-10-01T00:48:25;99947.28;;;10.34;99.41
44920;BME280;30655;53.094;6.072;2022-10-01T00:51:36;100038.72;;;10.93;98.64
44920;BME280;30655;53.094;6.072;2022-10-01T00:54:32;100004.91;;;10.96;98.39
44920;BME280;30655;53.094;6.072;2022-10-01T00:57:11;99903.09;;;10.25;96.94
44920;BME280;30655;53.094;6.072;2022-10-01T00:59:57;99897.84;;;10.33;97.25
44920;BME280;30655;53.094;6.072;2022-10-01T01:03:12;100031.28;;;11.04;100.00
44920;BME280;30655;53.094;6.072;2022-10-01T01:05:54;99883.47;;;10.14;99.05
44920;BME280;30655;53.094;6.072;2022-10-01T01:08:26;99858.06;;;10.20;99.86
44920;BME280;30655;53.094;6.072;2022-10-01T01:11:13;99901.66;;;10.51;99.51
44920;BME280;30655;53.094;6.072;2022-10-01T01:17:34;99881.72;;;10.28;98.85
44920;BME280;30655;53.094;6.072;2022-10-01T01:20:37;100052.06;;;11.46;98.98
44920;BME280;30655;53.094;6.072;2022-10-01T01:26:37;99860.38;;;10.27;100.00
44920;BME280;30655;53.094;6.072;2022-10-01T01:29:40;100002.69;;;11.16;100.00
44920;BME280;30655;53.094;6.072;2022-10-01T01:32:33;99893.34;;;10.66;99.49
44920;BME280;30655;53.094;6.072;2022-10-01T01:35:28;99813.50;;;10.18;100.00
44920;BME280;30655;53.094;6.072;2022-10-01T01:38:00;99800.81;;;10.18;100.00
44920;BME280;30655;53.094;6.072;2022-10-01T01:40:32;99945.63;;;11.18;99.51
44920;BME280;30655;53.094;6.072;2022-10-01T01:43:02;99987.78;;;11.38;99.87
44920;BME280;30655;53.094;6.072;2022-10-01T01:45:40;99929.41;;;10.99;100.00
44920;BME280;30655;53.094;6.072;2022-10-01T01:48:34;99947.94;;;11.06;100.00
44920;BME280;30655;53.094;6.072;2022-10-01T01:51:10;99899.59;;;10.86;100.00
44920;BME280;30655;53.094;6.072;2022-10-01T01:53:50;99837.94;;;10.50;100.00
44920;BME280;30655;53.094;6.072;2022-10-01T01:56:34;99980.63;;;11.47;100.00
44920;BME280;30655;53.094;6.072;2022-10-01T01:59:11;99984.34;;;11.51;100.00
44920;BME280;30655;53.094;6.072;2022-10-01T02:01:51;99974.41;;;11.46;100.00
44920;BME280;30655;53.094;6.072;2022-10-01T02:04:35;99778.34;;;10.23;100.00
44920;BME280;30655;53.094;6.072;2022-10-01T02:07:25;99967.31;;;11.50;100.00
44920;BME280;30655;53.094;6.072;2022-10-01T02:10:22;99954.88;;;11.49;100.00
44920;BME280;30655;53.094;6.072;2022-10-01T02:13:22;99939.75;;;11.48;100.00
44920;BME280;30655;53.094;6.072;2022-10-01T02:15:57;99940.03;;;11.47;100.00
44920;BME280;30655;53.094;6.072;2022-10-01T02:18:36;99782.44;;;10.39;100.00
44920;BME280;30655;53.094;6.072;2022-10-01T02:21:11;99897.50;;;11.34;100.00
44920;BME280;30655;53.094;6.072;2022-10-01T02:23:58;99876.38;;;11.17;100.00
44920;BME280;30655;53.094;6.072;2022-10-01T02:26:31;99869.88;;;11.18;100.00
44920;BME280;30655;53.094;6.072;2022-10-01T02:29:18;99921.31;;;11.50;100.00
44920;BME280;30655;53.094;6.072;2022-10-01T02:32:01;99741.91;;;10.39;100.00
44920;BME280;30655;53.094;6.072;2022-10-01T02:34:33;99867.63;;;11.25;100.00
44920;BME280;30655;53.094;6.072;2022-10-01T02:37:25;99727.47;;;10.49;100.00
44920;BME280;30655;53.094;6.072;2022-10-01T02:40:08;99882.31;;;11.51;100.00
44920;BME280;30655;53.094;6.072;2022-10-01T02:42:48;99677.84;;;10.26;100.00
44920;BME280;30655;53.094;6.072;2022-10-01T02:45:23;99719.56;;;10.52;100.00
44920;BME280;30655;53.094;6.072;2022-10-01T02:48:00;99863.78;;;11.45;100.00
44920;BME280;30655;53.094;6.072;2022-10-01T02:50:37;99753.28;;;10.73;100.00
44920;BME280;30655;53.094;6.072;2022-10-01T02:53:14;99907.53;;;11.65;100.00
44920;BME280;30655;53.094;6.072;2022-10-01T02:56:14;99882.84;;;11.67;100.00
44920;BME280;30655;53.094;6.072;2022-10-01T02:58:47;99864.31;;;11.60;100.00
44920;BME280;30655;53.094;6.072;2022-10-01T03:01:16;99887.97;;;11.69;100.00
44920;BME280;30655;53.094;6.072;2022-10-01T03:04:16;99838.28;;;11.32;100.00
44920;BME280;30655;53.094;6.072;2022-10-01T03:10:47;99697.38;;;10.55;100.00
44920;BME280;30655;53.094;6.072;2022-10-01T03:13:26;99758.25;;;10.99;100.00
44920;BME280;30655;53.094;6.072;2022-10-01T03:16:15;99822.78;;;11.51;100.00
44920;BME280;30655;53.094;6.072;2022-10-01T03:18:57;99871.56;;;11.79;100.00
44920;BME280;30655;53.094;6.072;2022-10-01T03:21:53;99861.94;;;11.73;100.00
44920;BME280;30655;53.094;6.072;2022-10-01T03:24:53;99813.75;;;11.56;100.00
44920;BME280;30655;53.094;6.072;2022-10-01T03:27:49;99786.28;;;11.35;100.00
44920;BME280;30655;53.094;6.072;2022-10-01T03:33:21;99770.16;;;11.30;100.00
44920;BME280;30655;53.094;6.072;2022-10-01T03:36:09;99835.66;;;11.87;100.00
44920;BME280;30655;53.094;6.072;2022-10-01T03:38:57;99845.31;;;11.93;100.00
44920;BME280;30655;53.094;6.072;2022-10-01T03:41:48;99865.97;;;11.89;100.00
44920;BME280;30655;53.094;6.072;2022-10-01T03:51:08;99667.41;;;10.70;100.00
44920;BME280;30655;53.094;6.072;2022-10-01T03:57:20;99686.00;;;10.72;100.00
44920;BME280;30655;53.094;6.072;2022-10-01T04:06:00;99852.91;;;11.77;100.00
44920;BME280;30655;53.094;6.072;2022-10-01T04:15:36;99682.41;;;10.76;100.00
44920;BME280;30655;53.094;6.072;2022-10-01T04:18:59;99867.88;;;12.02;100.00
44920;BME280;30655;53.094;6.072;2022-10-01T04:22:41;99666.78;;;10.73;100.00
44920;BME280;30655;53.094;6.072;2022-10-01T04:25:32;99667.69;;;10.83;100.00
44920;BME280;30655;53.094;6.072;2022-10-01T04:48:15;99746.41;;;11.41;100.00
44920;BME280;30655;53.094;6.072;2022-10-01T04:51:08;99888.94;;;12.32;100.00
44920;BME280;30655;53.094;6.072;2022-10-01T04:54:20;99707.13;;;11.30;100.00
44920;BME280;30655;53.094;6.072;2022-10-01T04:58:38;99869.75;;;12.42;100.00
44920;BME280;30655;53.094;6.072;2022-10-01T05:00:55;99878.88;;;12.46;100.00
44920;BME280;30655;53.094;6.072;2022-10-01T05:07:46;99876.28;;;12.55;100.00
44920;BME280;30655;53.094;6.072;2022-10-01T05:10:35;99887.91;;;12.56;100.00
44920;BME280;30655;53.094;6.072;2022-10-01T05:34:09;99910.47;;;12.78;100.00
44920;BME280;30655;53.094;6.072;2022-10-01T05:47:23;99829.94;;;12.29;100.00
44920;BME280;30655;53.094;6.072;2022-10-01T05:58:10;99792.84;;;12.02;100.00
44920;BME280;30655;53.094;6.072;2022-10-01T06:08:07;99887.78;;;12.74;100.00
44920;BME280;30655;53.094;6.072;2022-10-01T06:11:05;99785.94;;;12.10;100.00
44920;BME280;30655;53.094;6.072;2022-10-01T06:14:18;99791.34;;;12.10;100.00
44920;BME280;30655;53.094;6.072;2022-10-01T06:17:04;99803.75;;;12.25;100.00
44920;BME280;30655;53.094;6.072;2022-10-01T06:19:58;99787.50;;;12.25;100.00
44920;BME280;30655;53.094;6.072;2022-10-01T06:26:47;99989.47;;;13.49;100.00
44920;BME280;30655;53.094;6.072;2022-10-01T06:57:54;100052.25;;;13.69;100.00
44920;BME280;30655;53.094;6.072;2022-10-01T07:03:46;99949.28;;;13.15;100.00
44920;BME280;30655;53.094;6.072;2022-10-01T07:06:43;99865.13;;;12.57;100.00
44920;BME280;30655;53.094;6.072;2022-10-01T07:09:27;99871.16;;;12.54;100.00
44920;BME280;30655;53.094;6.072;2022-10-01T07:12:02;100005.50;;;13.36;100.00
44920;BME280;30655;53.094;6.072;2022-10-01T07:15:06;99878.19;;;12.55;100.00
44920;BME280;30655;53.094;6.072;2022-10-01T07:17:53;100056.78;;;13.60;100.00
44920;BME280;30655;53.094;6.072;2022-10-01T07:20:43;99883.72;;;12.49;100.00
44920;BME280;30655;53.094;6.072;2022-10-01T07:26:36;100005.84;;;13.21;100.00
44920;BME280;30655;53.094;6.072;2022-10-01T07:29:14;99992.38;;;13.16;100.00
44920;BME280;30655;53.094;6.072;2022-10-01T07:37:10;100020.13;;;13.13;100.00
44920;BME280;30655;53.094;6.072;2022-10-01T07:39:04;99906.50;;;12.48;100.00
44920;BME280;30655;53.094;6.072;2022-10-01T07:41:44;99916.31;;;12.58;100.00
44920;BME280;30655;53.094;6.072;2022-10-01T07:44:37;100070.88;;;13.62;100.00
44920;BME280;30655;53.094;6.072;2022-10-01T07:47:23;100016.75;;;13.30;100.00
44920;BME280;30655;53.094;6.072;2022-10-01T07:57:08;100073.69;;;13.57;100.00
44920;BME280;30655;53.094;6.072;2022-10-01T07:59:49;100040.94;;;13.54;100.00
44920;BME280;30655;53.094;6.072;2022-10-01T08:05:57;100064.97;;;13.83;100.00
44920;BME280;30655;53.094;6.072;2022-10-01T08:09:13;99996.00;;;13.48;100.00
44920;BME280;30655;53.094;6.072;2022-10-01T08:12:57;99979.03;;;13.42;100.00
44920;BME280;30655;53.094;6.072;2022-10-01T08:18:33;99948.31;;;13.55;100.00
44920;BME280;30655;53.094;6.072;2022-10-01T08:21:27;99985.00;;;13.97;100.00
44920;BME280;30655;53.094;6.072;2022-10-01T08:26:03;100121.31;;;14.97;100.00
44920;BME280;30655;53.094;6.072;2022-10-01T08:34:58;100053.59;;;14.95;100.00
44920;BME280;30655;53.094;6.072;2022-10-01T08:58:47;100147.28;;;15.03;100.00
44920;BME280;30655;53.094;6.072;2022-10-01T09:01:21;100080.41;;;14.40;98.72
44920;BME280;30655;53.094;6.072;2022-10-01T09:07:40;100144.44;;;14.77;98.75
44920;BME280;30655;53.094;6.072;2022-10-01T09:10:29;100016.97;;;14.00;98.62
44920;BME280;30655;53.094;6.072;2022-10-01T09:13:24;100171.69;;;15.17;99.39
44920;BME280;30655;53.094;6.072;2022-10-01T09:19:47;100155.88;;;15.36;99.23
44920;BME280;30655;53.094;6.072;2022-10-01T09:23:17;100089.34;;;15.02;99.53
44920;BME280;30655;53.094;6.072;2022-10-01T09:26:33;100050.56;;;14.97;99.82
44920;BME280;30655;53.094;6.072;2022-10-01T09:30:57;100018.06;;;14.83;98.52
44920;BME280;30655;53.094;6.072;2022-10-01T09:35:54;100001.28;;;14.98;98.15
44920;BME280;30655;53.094;6.072;2022-10-01T09:48:48;100258.94;;;15.90;95.67
44920;BME280;30655;53.094;6.072;2022-10-01T09:51:28;100248.59;;;15.53;94.22
44920;BME280;30655;53.094;6.072;2022-10-01T09:54:44;100118.19;;;14.06;92.80
44920;BME280;30655;53.094;6.072;2022-10-01T09:57:27;100268.84;;;14.63;94.74
44920;BME280;30655;53.094;6.072;2022-10-01T10:00:04;100105.53;;;13.29;95.69
44920;BME280;30655;53.094;6.072;2022-10-01T10:02:53;100221.81;;;13.77;96.81
44920;BME280;30655;53.094;6.072;2022-10-01T10:05:39;100248.75;;;13.87;97.38
44920;BME280;30655;53.094;6.072;2022-10-01T10:08:14;100236.81;;;13.74;97.68
44920;BME280;30655;53.094;6.072;2022-10-01T10:11:28;100156.50;;;13.19;98.78
44920;BME280;30655;53.094;6.072;2022-10-01T10:17:12;100162.63;;;13.24;99.23
44920;BME280;30655;53.094;6.072;2022-10-01T10:19:26;100096.88;;;12.86;99.87
44920;BME280;30655;53.094;6.072;2022-10-01T10:26:14;100235.19;;;13.87;99.51
44920;BME280;30655;53.094;6.072;2022-10-01T10:30:15;100113.66;;;13.16;99.28
44920;BME280;30655;53.094;6.072;2022-10-01T10:40:05;100111.94;;;13.47;98.91
44920;BME280;30655;53.094;6.072;2022-10-01T10:47:01;100251.66;;;14.54;98.09
44920;BME280;30655;53.094;6.072;2022-10-01T11:00:46;100164.94;;;14.52;98.70
44920;BME280;30655;53.094;6.072;2022-10-01T11:03:47;100347.41;;;15.84;98.89
44920;BME280;30655;53.094;6.072;2022-10-01T11:07:17;100213.81;;;15.19;97.53
44920;BME280;30655;53.094;6.072;2022-10-01T11:16:32;100185.13;;;15.13;94.16
44920;BME280;30655;53.094;6.072;2022-10-01T12:35:15;100338.06;;;16.25;84.83
44920;BME280;30655;53.094;6.072;2022-10-01T12:41:50;100318.97;;;16.08;83.75
44920;BME280;30655;53.094;6.072;2022-10-01T14:04:49;100541.09;;;20.36;62.82
44920;BME280;30655;53.094;6.072;2022-10-01T14:07:51;100586.63;;;20.49;61.43
44920;BME280;30655;53.094;6.072;2022-10-01T14:11:29;100596.31;;;20.34;62.07
44920;BME280;30655;53.094;6.072;2022-10-01T14:14:54;100440.59;;;18.91;62.30
44920;BME280;30655;53.094;6.072;2022-10-01T14:31:09;100448.34;;;16.41;68.21
44920;BME280;30655;53.094;6.072;2022-10-01T14:37:57;100605.59;;;17.73;67.97
44920;BME280;30655;53.094;6.072;2022-10-01T14:40:47;100595.13;;;18.09;67.08
44920;BME280;30655;53.094;6.072;2022-10-01T14:47:18;100525.41;;;18.24;64.71
44920;BME280;30655;53.094;6.072;2022-10-01T14:50:50;100653.25;;;18.87;64.84
44920;BME280;30655;53.094;6.072;2022-10-01T14:53:36;100509.59;;;17.48;65.27
44920;BME280;30655;53.094;6.072;2022-10-01T14:56:25;100657.97;;;18.69;65.41
44920;BME280;30655;53.094;6.072;2022-10-01T14:59:26;100661.97;;;19.18;64.37
44920;BME280;30655;53.094;6.072;2022-10-01T15:02:26;100658.44;;;19.56;64.43
44920;BME280;30655;53.094;6.072;2022-10-01T15:05:27;100656.31;;;19.61;63.78
44920;BME280;30655;53.094;6.072;2022-10-01T15:11:16;100576.47;;;19.04;63.28
44920;BME280;30655;53.094;6.072;2022-10-01T15:14:13;100531.78;;;18.91;61.24
44920;BME280;30655;53.094;6.072;2022-10-01T15:16:54;100626.88;;;19.91;61.63
44920;BME280;30655;53.094;6.072;2022-10-01T15:19:49;100686.97;;;20.46;60.54
44920;BME280;30655;53.094;6.072;2022-10-01T15:25:54;100696.25;;;20.54;59.95
44920;BME280;30655;53.094;6.072;2022-10-01T15:30:32;100589.00;;;19.85;59.12
44920;BME280;30655;53.094;6.072;2022-10-01T15:32:57;100575.19;;;19.60;60.32
44920;BME280;30655;53.094;6.072;2022-10-01T15:53:42;100557.47;;;18.06;60.62
44920;BME280;30655;53.094;6.072;2022-10-01T16:07:00;100736.31;;;17.79;63.70
44920;BME280;30655;53.094;6.072;2022-10-01T16:41:53;100681.25;;;15.46;70.63
44920;BME280;30655;53.094;6.072;2022-10-01T16:46:19;100819.19;;;16.10;70.37
44920;BME280;30655;53.094;6.072;2022-10-01T17:37:03;100886.06;;;14.41;74.12
44920;BME280;30655;53.094;6.072;2022-10-01T18:21:58;100757.53;;;12.64;79.89
44920;BME280;30655;53.094;6.072;2022-10-01T18:24:54;100844.78;;;13.10;79.07
44920;BME280;30655;53.094;6.072;2022-10-01T19:16:20;100857.91;;;12.54;82.53
44920;BME280;30655;53.094;6.072;2022-10-01T19:19:54;100828.81;;;12.25;83.12
44920;BME280;30655;53.094;6.072;2022-10-01T19:23:55;100843.66;;;12.33;82.87
44920;BME280;30655;53.094;6.072;2022-10-01T19:43:21;101049.50;;;13.38;83.94
44920;BME280;30655;53.094;6.072;2022-10-01T20:24:10;101067.28;;;13.64;87.24
44920;BME280;30655;53.094;6.072;2022-10-01T20:27:04;100933.72;;;12.74;86.43
44920;BME280;30655;53.094;6.072;2022-10-01T20:29:55;101075.31;;;13.79;86.16
44920;BME280;30655;53.094;6.072;2022-10-01T20:33:24;100883.63;;;12.56;85.95
44920;BME280;30655;53.094;6.072;2022-10-01T21:08:01;100919.00;;;12.26;87.64
44920;BME280;30655;53.094;6.072;2022-10-01T21:10:36;100922.00;;;12.29;87.43
44920;BME280;30655;53.094;6.072;2022-10-01T21:13:48;100948.03;;;12.30;88.43
44920;BME280;30655;53.094;6.072;2022-10-01T21:17:12;101107.09;;;13.34;88.24
44920;BME280;30655;53.094;6.072;2022-10-01T21:20:13;100932.31;;;12.22;88.68
